JFK weather

John F Kennedy International Airport
New York, New York, United States

Public forecast

Using degrees Fahrenheit for public forecast. Weather courtesy of forecast.io.

METAR (pilot weather report)

Retrieved 2017/12/15 22:20 UTC (0 seconds ago):

KJFK 152220Z 27008KT 3/4SM R04R/5000VP6000FT -SN BR VV007 M04/M04 A2995 RMK AO2 P0002 T10391044 $

TAF (pilot weather forecast)

Retrieved 2017/12/15 18:31 UTC (4 hours ago):

TAF KJFK 151726Z 1518/1624 21006KT P6SM VCSH SCT030 BKN050 FM152000 26006KT 2SM -SN SCT015 OVC025 TEMPO 1521/1524 1/2SM SN VV007 FM160200 28009KT P6SM SCT035 BKN070 FM160400 28011KT P6SM SCT150 FM160700 27014G20KT P6SM FEW070 FEW250 FM161500 27017G25KT P6SM SCT040 FM161800 27020G28KT P6SM BKN040